Time;durP1;ratioP1;P1;durP2;ratioP2;P2;SDS_P1;SDS_P2;PMS_P1;PMS_P2;Temp;Humidity;BMP_temperature;BMP_pressure;BME280_temperature;BME280_humidity;BME280_pressure;Samples;Min_cycle;Max_cycle;Signal;HPM_P1;HPM_P2
2022/03/19 00:01:39;;;;;;;11.93;2.97;;;5.90;99.90;;;;;;5092085;28;20047;-60
2022/03/19 00:04:05;;;;;;;16.38;2.97;;;5.90;99.90;;;;;;5091877;28;20044;-59
2022/03/19 00:06:31;;;;;;;14.80;3.60;;;5.90;99.90;;;;;;5092022;28;20052;-60
2022/03/19 00:08:57;;;;;;;17.52;3.88;;;5.80;99.90;;;;;;5091858;28;20066;-60
2022/03/19 00:11:24;;;;;;;12.27;3.42;;;5.80;99.90;;;;;;5091732;28;20040;-60
2022/03/19 00:13:49;;;;;;;12.80;3.25;;;5.80;99.90;;;;;;5091959;28;20048;-60
2022/03/19 00:16:15;;;;;;;15.63;2.92;;;5.70;99.90;;;;;;5092070;28;20067;-60
2022/03/19 00:18:41;;;;;;;19.08;4.25;;;5.70;99.90;;;;;;5107874;28;20445;-60
2022/03/19 00:21:07;;;;;;;12.63;3.15;;;5.70;99.90;;;;;;5091960;28;20502;-60
2022/03/19 00:23:33;;;;;;;20.20;4.32;;;5.60;99.90;;;;;;5091752;28;20075;-60
2022/03/19 00:25:59;;;;;;;11.05;2.60;;;5.60;99.90;;;;;;5091612;28;20068;-60
2022/03/19 00:28:24;;;;;;;13.38;3.38;;;5.60;99.90;;;;;;5092008;28;20097;-60
2022/03/19 00:30:50;;;;;;;16.75;3.65;;;5.60;99.90;;;;;;5091606;28;20485;-62
2022/03/19 00:33:16;;;;;;;11.77;3.28;;;5.60;99.90;;;;;;5091755;28;20036;-59
2022/03/19 00:35:41;;;;;;;10.10;3.15;;;5.60;99.90;;;;;;5091674;28;20099;-60
2022/03/19 00:38:07;;;;;;;12.75;3.45;;;5.60;99.90;;;;;;5092286;28;20032;-59
2022/03/19 00:40:34;;;;;;;17.70;3.83;;;5.60;99.90;;;;;;5095228;28;20052;-60
2022/03/19 00:43:00;;;;;;;16.35;3.90;;;5.70;99.90;;;;;;5095841;28;20437;-60
2022/03/19 00:45:27;;;;;;;17.02;3.35;;;5.60;99.90;;;;;;5095523;28;20079;-60
2022/03/19 00:47:53;;;;;;;9.55;2.83;;;5.60;99.90;;;;;;5095499;28;20552;-60
2022/03/19 00:50:18;;;;;;;14.60;3.47;;;5.60;99.90;;;;;;5095478;28;20044;-60
2022/03/19 00:52:44;;;;;;;12.52;3.15;;;5.60;99.90;;;;;;5095371;28;20486;-60
2022/03/19 00:55:10;;;;;;;18.58;3.13;;;5.60;99.90;;;;;;5095671;28;20470;-60
2022/03/19 00:57:41;;;;;;;14.18;3.15;;;5.50;99.90;;;;;;5095488;28;20043;-60
2022/03/19 01:00:09;;;;;;;14.27;3.13;;;5.50;99.90;;;;;;5095605;28;20447;-61
2022/03/19 01:02:35;;;;;;;16.25;3.10;;;5.50;99.90;;;;;;5095386;28;20047;-60
2022/03/19 01:05:00;;;;;;;16.48;3.58;;;5.50;99.90;;;;;;5095204;28;20032;-61
2022/03/19 01:07:26;;;;;;;12.38;3.20;;;5.50;99.90;;;;;;5095041;28;20040;-61
2022/03/19 01:09:52;;;;;;;19.25;3.00;;;5.40;99.90;;;;;;5095120;28;20040;-61
2022/03/19 01:12:17;;;;;;;13.70;2.88;;;5.40;99.90;;;;;;5095165;28;20040;-61
2022/03/19 01:14:43;;;;;;;19.30;4.10;;;5.40;99.90;;;;;;5095101;28;20040;-61
2022/03/19 01:17:09;;;;;;;12.27;2.72;;;5.40;99.90;;;;;;5095249;28;20494;-61
2022/03/19 01:19:52;;;;;;;11.15;3.20;;;5.40;99.90;;;;;;5095084;28;20692;-61
2022/03/19 01:22:19;;;;;;;11.30;2.65;;;5.30;99.90;;;;;;5094800;28;20059;-61
2022/03/19 01:24:45;;;;;;;14.13;2.97;;;5.40;99.90;;;;;;5094986;28;20039;-61
2022/03/19 01:27:11;;;;;;;15.38;3.45;;;5.40;99.90;;;;;;5094775;28;20071;-61
2022/03/19 01:29:36;;;;;;;17.05;3.40;;;5.30;99.90;;;;;;5110073;28;20427;-61
2022/03/19 01:32:03;;;;;;;15.75;3.45;;;5.40;99.90;;;;;;5094673;28;20063;-61
2022/03/19 01:34:29;;;;;;;16.27;3.85;;;5.40;99.90;;;;;;5094607;28;20043;-60
2022/03/19 01:36:54;;;;;;;20.27;3.50;;;5.40;99.90;;;;;;5095020;28;20036;-60
2022/03/19 01:39:20;;;;;;;13.98;3.20;;;5.30;99.90;;;;;;5094391;28;20089;-61
2022/03/19 01:41:46;;;;;;;21.10;4.50;;;5.40;99.90;;;;;;5094239;28;20056;-62
2022/03/19 01:44:22;;;;;;;18.20;3.92;;;5.30;99.90;;;;;;5094560;28;20169;-60
2022/03/19 01:46:57;;;;;;;18.25;3.80;;;5.40;99.90;;;;;;5094426;28;20427;-61
2022/03/19 01:49:23;;;;;;;18.80;3.63;;;5.40;99.90;;;;;;5093859;28;20039;-60
2022/03/19 01:51:49;;;;;;;16.50;3.97;;;5.40;99.90;;;;;;5094383;28;20036;-60
2022/03/19 01:54:15;;;;;;;17.55;3.38;;;5.40;99.90;;;;;;5094348;28;20471;-60
2022/03/19 01:56:42;;;;;;;12.20;3.13;;;5.40;99.90;;;;;;5094598;28;20044;-60
2022/03/19 01:59:08;;;;;;;17.02;4.00;;;5.40;99.90;;;;;;5094464;28;20040;-60
2022/03/19 02:01:34;;;;;;;24.95;5.75;;;5.30;99.90;;;;;;5093975;28;20040;-60
2022/03/19 02:04:00;;;;;;;13.88;3.13;;;5.40;99.90;;;;;;5094020;28;20048;-60
2022/03/19 02:06:27;;;;;;;15.05;3.50;;;5.30;99.90;;;;;;5094241;28;20102;-60
2022/03/19 02:08:54;;;;;;;14.73;3.70;;;5.30;99.90;;;;;;5094148;28;20119;-60
2022/03/19 02:11:20;;;;;;;13.82;3.20;;;5.30;99.90;;;;;;5093913;28;20047;-61
2022/03/19 02:13:46;;;;;;;19.70;3.50;;;5.20;99.90;;;;;;5093765;28;20036;-60
2022/03/19 02:16:12;;;;;;;15.20;3.03;;;5.30;99.90;;;;;;5093885;28;20424;-60
2022/03/19 02:18:38;;;;;;;15.38;3.03;;;5.30;99.90;;;;;;5093693;28;20111;-60
2022/03/19 02:21:03;;;;;;;19.05;4.07;;;5.30;99.90;;;;;;5093922;28;20044;-60
2022/03/19 02:26:13;;;;;;;17.48;3.80;;;5.20;99.90;;;;;;5086486;28;20044;-60
2022/03/19 02:28:39;;;;;;;16.42;3.58;;;5.20;99.90;;;;;;5076587;28;20051;-60
2022/03/19 02:31:05;;;;;;;18.65;3.85;;;5.20;99.90;;;;;;5079505;28;20123;-60
2022/03/19 02:33:30;;;;;;;16.58;3.58;;;5.20;99.90;;;;;;5093924;28;20032;-61
2022/03/19 02:35:56;;;;;;;19.27;3.58;;;5.20;99.90;;;;;;5093810;28;20047;-60
2022/03/19 02:38:22;;;;;;;17.05;3.65;;;5.20;99.90;;;;;;5093717;28;20035;-60
2022/03/19 02:40:47;;;;;;;10.82;3.60;;;5.20;99.90;;;;;;5086685;28;20567;-60
2022/03/19 02:43:14;;;;;;;16.08;3.83;;;5.30;99.90;;;;;;5106414;28;20050;-60
2022/03/19 02:45:40;;;;;;;19.75;4.38;;;5.20;99.90;;;;;;5112404;28;20039;-60
2022/03/19 02:48:06;;;;;;;21.80;3.63;;;5.30;99.90;;;;;;5113870;28;20449;-61
2022/03/19 02:50:36;;;;;;;15.00;3.97;;;5.30;99.90;;;;;;5113345;28;20039;-59
2022/03/19 02:53:08;;;;;;;17.77;4.57;;;5.30;99.90;;;;;;5113795;28;20047;-60
2022/03/19 02:55:39;;;;;;;18.35;3.97;;;5.30;99.90;;;;;;5113261;28;20497;-61
2022/03/19 02:58:06;;;;;;;19.48;4.13;;;5.20;99.90;;;;;;5113311;27;20499;-60
2022/03/19 03:00:32;;;;;;;14.63;4.85;;;5.20;99.90;;;;;;5113281;28;20032;-60
2022/03/19 03:02:59;;;;;;;15.05;3.75;;;5.20;99.90;;;;;;5111950;28;20462;-60
2022/03/19 03:05:25;;;;;;;18.35;4.53;;;5.20;99.90;;;;;;5113310;28;20035;-60
2022/03/19 03:07:51;;;;;;;21.48;4.43;;;5.20;99.90;;;;;;5113504;28;20443;-61
2022/03/19 03:10:18;;;;;;;21.42;4.45;;;5.20;99.90;;;;;;5111619;28;20443;-59
2022/03/19 03:12:44;;;;;;;15.90;4.30;;;5.20;99.90;;;;;;5113338;28;20050;-60
2022/03/19 03:15:10;;;;;;;16.90;4.00;;;5.20;99.90;;;;;;5113174;28;20039;-60
2022/03/19 03:17:36;;;;;;;19.67;4.60;;;5.10;99.90;;;;;;5113317;28;20036;-60
2022/03/19 03:20:03;;;;;;;22.25;4.80;;;5.10;99.90;;;;;;5113271;28;20073;-60
2022/03/19 03:22:31;;;;;;;13.82;3.90;;;5.10;99.90;;;;;;5113443;28;20470;-60
2022/03/19 03:24:57;;;;;;;16.55;4.00;;;5.20;99.90;;;;;;5113057;28;20070;-60
2022/03/19 03:27:23;;;;;;;16.38;4.40;;;5.10;99.90;;;;;;5112885;28;20490;-60
2022/03/19 03:29:49;;;;;;;19.52;4.47;;;5.10;99.90;;;;;;5111760;28;20054;-60
2022/03/19 03:32:15;;;;;;;18.25;4.10;;;5.10;99.90;;;;;;5113225;28;20043;-60
2022/03/19 03:34:41;;;;;;;18.40;4.88;;;5.10;99.90;;;;;;5113194;28;20044;-60
2022/03/19 03:37:07;;;;;;;13.68;4.10;;;5.00;99.90;;;;;;5112882;28;20568;-60
2022/03/19 03:39:33;;;;;;;14.52;4.63;;;5.00;99.90;;;;;;5112470;28;20028;-60
2022/03/19 03:41:59;;;;;;;19.77;4.40;;;5.00;99.90;;;;;;5112539;28;20505;-60
2022/03/19 03:44:25;;;;;;;20.70;4.65;;;5.00;99.90;;;;;;5112723;28;20390;-60
2022/03/19 03:46:50;;;;;;;22.23;5.72;;;4.90;99.90;;;;;;5112637;28;20116;-60
2022/03/19 03:49:16;;;;;;;18.05;5.15;;;4.90;99.90;;;;;;5112617;28;20035;-60
2022/03/19 03:51:42;;;;;;;18.65;5.00;;;4.90;99.90;;;;;;5112413;28;20042;-60
2022/03/19 03:54:08;;;;;;;17.30;4.80;;;4.90;99.90;;;;;;5112413;28;20044;-60
2022/03/19 03:56:35;;;;;;;10.35;4.50;;;4.80;99.90;;;;;;5111301;28;20086;-60
2022/03/19 03:59:01;;;;;;;18.70;5.45;;;4.80;99.90;;;;;;5112564;28;20042;-60
2022/03/19 04:01:26;;;;;;;17.17;5.00;;;4.70;99.90;;;;;;5112633;28;20031;-60
2022/03/19 04:03:53;;;;;;;18.67;4.82;;;4.70;99.90;;;;;;5112521;28;20428;-60
2022/03/19 04:06:18;;;;;;;19.00;5.07;;;4.70;99.90;;;;;;5112462;28;20036;-60
2022/03/19 04:08:44;;;;;;;22.77;5.55;;;4.80;99.90;;;;;;5112077;28;20057;-60
2022/03/19 04:11:10;;;;;;;20.83;5.68;;;4.70;99.90;;;;;;5111214;28;20044;-60
2022/03/19 04:13:35;;;;;;;20.67;5.00;;;4.70;99.90;;;;;;5112352;28;20043;-60
2022/03/19 04:16:01;;;;;;;21.35;5.47;;;4.70;99.90;;;;;;5112448;28;20096;-61
2022/03/19 04:18:27;;;;;;;22.45;4.97;;;4.70;99.90;;;;;;5112490;28;20054;-60
2022/03/19 04:20:54;;;;;;;20.13;5.35;;;4.60;99.90;;;;;;5112510;28;20348;-60
2022/03/19 04:23:20;;;;;;;19.60;6.40;;;4.60;99.90;;;;;;5112455;28;20035;-60
2022/03/19 04:25:46;;;;;;;19.13;6.55;;;4.60;99.90;;;;;;5112464;28;20550;-60
2022/03/19 04:28:12;;;;;;;23.58;6.97;;;4.60;99.90;;;;;;5112397;28;20043;-60
2022/03/19 04:30:40;;;;;;;26.83;7.28;;;4.50;99.90;;;;;;5112432;28;20485;-60
2022/03/19 04:33:06;;;;;;;19.63;6.72;;;4.60;99.90;;;;;;5112332;28;20051;-60
2022/03/19 04:38:21;;;;;;;17.02;6.47;;;4.60;99.90;;;;;;5112596;28;20040;-60
2022/03/19 04:40:48;;;;;;;18.45;6.05;;;4.60;99.90;;;;;;5111833;28;20059;-60
2022/03/19 04:43:14;;;;;;;23.60;5.97;;;4.60;99.90;;;;;;5111968;28;20047;-60
2022/03/19 04:45:41;;;;;;;15.73;5.85;;;4.60;99.90;;;;;;5112033;28;20044;-60
2022/03/19 04:48:08;;;;;;;17.45;6.78;;;4.70;99.90;;;;;;5111850;28;20043;-60
2022/03/19 04:50:38;;;;;;;21.45;6.38;;;4.70;99.90;;;;;;5112040;28;20040;-60
2022/03/19 04:53:06;;;;;;;17.88;6.95;;;4.70;99.90;;;;;;5110938;28;20416;-60
2022/03/19 04:55:33;;;;;;;13.88;6.18;;;4.70;99.90;;;;;;5112791;28;20799;-60
2022/03/19 04:57:58;;;;;;;21.15;7.00;;;4.70;99.90;;;;;;5112312;28;20420;-60
2022/03/19 05:00:25;;;;;;;23.50;6.82;;;4.70;99.90;;;;;;5112135;28;20063;-60
2022/03/19 05:02:50;;;;;;;20.38;6.50;;;4.70;99.90;;;;;;5111931;28;20529;-60
2022/03/19 05:05:16;;;;;;;23.73;6.93;;;4.70;99.90;;;;;;5111846;28;20138;-60
2022/03/19 05:07:42;;;;;;;18.23;7.15;;;4.70;99.90;;;;;;5111919;28;20044;-60
2022/03/19 05:12:55;;;;;;;21.20;7.00;;;4.70;99.90;;;;;;5111683;28;20035;-61
2022/03/19 05:15:21;;;;;;;21.42;6.85;;;4.70;99.90;;;;;;5111569;28;20039;-60
2022/03/19 05:17:47;;;;;;;19.95;5.80;;;4.60;99.90;;;;;;5111394;28;20106;-60
2022/03/19 05:20:13;;;;;;;18.45;6.00;;;4.60;99.90;;;;;;5111671;28;20036;-60
2022/03/19 05:22:39;;;;;;;19.92;6.45;;;4.70;99.90;;;;;;5110288;28;20473;-61
2022/03/19 05:25:06;;;;;;;13.13;6.10;;;4.60;99.90;;;;;;5113841;28;20043;-60
2022/03/19 05:27:31;;;;;;;20.23;7.40;;;4.60;99.90;;;;;;5115638;28;20044;-60
2022/03/19 05:29:57;;;;;;;18.83;7.10;;;4.60;99.90;;;;;;5115340;28;20139;-60
2022/03/19 05:32:23;;;;;;;18.73;7.18;;;4.70;99.90;;;;;;5115332;28;20061;-60
2022/03/19 05:34:49;;;;;;;18.70;6.97;;;4.60;99.90;;;;;;5115246;27;20043;-61
2022/03/19 05:37:16;;;;;;;21.83;8.00;;;4.60;99.90;;;;;;5115409;28;20059;-60
2022/03/19 05:39:42;;;;;;;22.08;7.05;;;4.60;99.90;;;;;;5115124;28;20113;-60
2022/03/19 05:42:09;;;;;;;19.58;6.90;;;4.60;99.90;;;;;;5115173;28;20119;-60
2022/03/19 05:44:35;;;;;;;23.70;7.78;;;4.60;99.90;;;;;;5114950;28;20381;-61
2022/03/19 05:47:01;;;;;;;19.95;6.75;;;4.60;99.90;;;;;;5115022;28;20043;-60
2022/03/19 05:49:28;;;;;;;17.20;7.65;;;4.70;99.90;;;;;;5115280;28;20036;-60
2022/03/19 05:51:55;;;;;;;25.27;7.85;;;4.70;99.90;;;;;;5114147;28;20051;-60
2022/03/19 05:54:21;;;;;;;20.30;6.50;;;4.70;99.90;;;;;;5096567;28;20056;-60
2022/03/19 05:56:46;;;;;;;21.55;7.03;;;4.70;99.90;;;;;;5114819;28;20087;-60
2022/03/19 05:59:12;;;;;;;21.60;7.38;;;4.70;99.90;;;;;;5114434;28;20427;-60
2022/03/19 06:01:38;;;;;;;17.13;6.70;;;4.70;99.90;;;;;;5114474;28;20040;-60
2022/03/19 06:04:04;;;;;;;15.30;6.57;;;4.70;99.90;;;;;;5114684;28;20164;-60
2022/03/19 06:06:31;;;;;;;17.85;8.15;;;4.70;99.90;;;;;;5114519;28;20162;-60
2022/03/19 06:08:57;;;;;;;23.73;7.70;;;4.70;99.90;;;;;;5114620;28;20038;-60
2022/03/19 06:11:23;;;;;;;21.42;7.13;;;4.70;99.90;;;;;;5114302;28;20039;-60
2022/03/19 06:13:49;;;;;;;21.35;7.07;;;4.80;99.90;;;;;;5114094;28;20081;-60
2022/03/19 06:16:15;;;;;;;21.88;8.52;;;4.90;99.90;;;;;;5114187;28;20048;-60
2022/03/19 06:18:45;;;;;;;20.23;8.40;;;5.00;99.90;;;;;;5114306;28;20084;-60
2022/03/19 06:21:11;;;;;;;21.02;8.10;;;5.20;99.90;;;;;;5114137;28;20119;-60
2022/03/19 06:23:37;;;;;;;23.38;7.70;;;5.30;99.90;;;;;;5114200;28;20146;-60
2022/03/19 06:26:03;;;;;;;23.48;7.85;;;5.50;99.90;;;;;;5114164;28;20405;-60
2022/03/19 06:28:28;;;;;;;21.33;8.60;;;5.60;99.90;;;;;;5113981;28;20036;-60
2022/03/19 06:30:54;;;;;;;18.05;7.75;;;5.70;99.90;;;;;;5113919;28;20043;-60
2022/03/19 06:33:20;;;;;;;20.10;7.07;;;5.90;99.90;;;;;;5114065;28;20089;-60
2022/03/19 06:38:30;;;;;;;16.70;7.03;;;6.10;99.90;;;;;;5114043;28;20375;-60
2022/03/19 06:40:57;;;;;;;17.38;7.40;;;6.10;99.90;;;;;;5113936;28;20154;-60
2022/03/19 06:43:24;;;;;;;17.70;7.13;;;6.10;99.90;;;;;;5112507;28;20061;-60
2022/03/19 06:45:50;;;;;;;20.65;6.82;;;6.10;99.90;;;;;;5113965;28;20039;-60
2022/03/19 06:48:16;;;;;;;19.13;6.47;;;6.20;99.90;;;;;;5112627;28;20061;-60
2022/03/19 06:50:42;;;;;;;16.33;6.35;;;6.20;99.90;;;;;;5113886;28;20097;-60
2022/03/19 06:53:08;;;;;;;22.88;6.40;;;6.30;99.90;;;;;;5114172;28;20044;-60
2022/03/19 06:55:34;;;;;;;19.75;6.38;;;6.30;99.90;;;;;;5113675;28;20477;-60
2022/03/19 06:58:00;;;;;;;17.83;6.00;;;6.30;99.90;;;;;;5113557;28;20035;-61
2022/03/19 07:00:26;;;;;;;14.20;6.05;;;6.30;99.90;;;;;;5113855;28;20036;-60
2022/03/19 07:02:54;;;;;;;17.55;5.15;;;6.40;99.90;;;;;;5113337;27;20478;-60
2022/03/19 07:05:27;;;;;;;16.77;5.68;;;6.50;99.90;;;;;;5113576;28;20039;-59
2022/03/19 07:07:54;;;;;;;18.90;6.13;;;6.50;99.90;;;;;;5113485;28;20047;-60
2022/03/19 07:10:21;;;;;;;20.80;6.43;;;6.60;99.90;;;;;;5113220;28;20057;-59
2022/03/19 07:12:48;;;;;;;14.60;6.13;;;6.60;99.90;;;;;;5113112;28;20043;-59
2022/03/19 07:15:20;;;;;;;15.40;6.28;;;6.70;99.90;;;;;;5113383;28;20039;-60
2022/03/19 07:17:46;;;;;;;17.33;6.25;;;6.90;99.90;;;;;;5112008;28;20088;-59
2022/03/19 07:20:16;;;;;;;13.88;5.35;;;7.00;99.90;;;;;;5111900;28;20099;-60
2022/03/19 07:22:57;;;;;;;17.85;6.78;;;7.30;99.90;;;;;;5113093;28;20032;-60
2022/03/19 07:25:25;;;;;;;13.43;5.13;;;7.60;99.90;;;;;;5113399;28;20118;-59
2022/03/19 07:27:53;;;;;;;16.45;5.40;;;7.70;99.90;;;;;;5113040;28;20044;-59
2022/03/19 07:30:20;;;;;;;15.38;5.18;;;8.00;99.90;;;;;;5113042;28;20031;-60
2022/03/19 07:32:45;;;;;;;14.60;5.50;;;8.30;99.90;;;;;;5112782;28;20126;-60
2022/03/19 07:35:13;;;;;;;18.77;6.10;;;8.40;99.90;;;;;;5112442;28;20126;-60
2022/03/19 07:37:40;;;;;;;19.58;6.72;;;8.60;99.90;;;;;;5112932;28;20035;-61
2022/03/19 07:40:14;;;;;;;15.80;5.60;;;8.80;99.90;;;;;;5112703;28;20043;-59
2022/03/19 07:42:40;;;;;;;17.52;5.82;;;9.10;99.90;;;;;;5112755;28;20039;-60
2022/03/19 07:45:07;;;;;;;14.88;5.22;;;9.30;99.90;;;;;;5112470;28;20048;-59
2022/03/19 07:47:34;;;;;;;18.42;5.70;;;9.40;99.90;;;;;;5112398;28;20035;-60
2022/03/19 07:50:00;;;;;;;16.58;5.40;;;9.60;99.90;;;;;;5110627;28;20055;-62
2022/03/19 07:52:27;;;;;;;14.20;5.30;;;9.80;99.90;;;;;;5112754;28;20046;-62
2022/03/19 07:54:54;;;;;;;10.90;5.03;;;10.00;99.90;;;;;;5112476;28;20079;-63
2022/03/19 07:57:21;;;;;;;12.50;5.03;;;10.20;99.90;;;;;;5112498;28;20027;-63
2022/03/19 07:59:48;;;;;;;19.75;5.45;;;10.50;99.90;;;;;;5112475;28;20036;-64
2022/03/19 08:02:13;;;;;;;14.55;5.18;;;10.70;99.90;;;;;;5110556;28;20054;-63
2022/03/19 08:04:39;;;;;;;17.20;5.40;;;10.80;99.90;;;;;;5112273;28;20040;-63
2022/03/19 08:07:05;;;;;;;10.98;4.60;;;11.00;99.90;;;;;;5112373;28;20073;-63
2022/03/19 08:09:30;;;;;;;13.18;4.88;;;11.10;99.90;;;;;;5112446;28;20457;-60
2022/03/19 08:11:56;;;;;;;12.32;4.68;;;11.40;99.90;;;;;;5112223;28;20417;-60
2022/03/19 08:14:22;;;;;;;16.77;5.10;;;11.60;99.90;;;;;;5112179;28;20389;-61
2022/03/19 08:16:48;;;;;;;11.45;4.72;;;11.60;99.90;;;;;;5112312;28;20071;-61
2022/03/19 08:19:14;;;;;;;15.40;4.70;;;11.70;99.90;;;;;;5112825;28;20474;-59
2022/03/19 08:21:43;;;;;;;13.02;4.72;;;12.00;99.90;;;;;;5112394;28;20054;-59
2022/03/19 08:24:10;;;;;;;17.63;5.03;;;12.20;99.90;;;;;;5112461;28;20405;-59
2022/03/19 08:26:36;;;;;;;19.15;5.95;;;12.20;99.90;;;;;;5112462;28;20055;-59
2022/03/19 08:29:02;;;;;;;14.73;5.03;;;12.00;99.90;;;;;;5112241;28;20540;-60
2022/03/19 08:31:28;;;;;;;15.23;4.30;;;12.10;99.90;;;;;;5112050;28;20067;-59
2022/03/19 08:33:56;;;;;;;12.52;5.05;;;12.00;99.90;;;;;;5112328;28;20067;-60
2022/03/19 08:36:22;;;;;;;15.55;4.72;;;12.10;99.90;;;;;;5112008;28;20044;-59
2022/03/19 08:41:32;;;;;;;11.93;3.80;;;13.10;99.90;;;;;;5111742;28;20054;-60
2022/03/19 08:43:58;;;;;;;13.48;3.97;;;13.00;99.90;;;;;;5111839;28;20036;-60
2022/03/19 08:46:24;;;;;;;11.10;4.10;;;13.00;99.90;;;;;;5111937;28;20493;-60
2022/03/19 08:48:50;;;;;;;17.48;4.85;;;12.90;99.90;;;;;;5112070;28;20035;-60
2022/03/19 08:54:00;;;;;;;14.93;4.18;;;13.00;99.90;;;;;;5111635;28;20479;-60
2022/03/19 08:56:26;;;;;;;15.95;4.63;;;13.10;99.90;;;;;;5111825;28;20039;-60
2022/03/19 08:58:51;;;;;;;15.57;5.00;;;12.90;99.90;;;;;;5112077;28;20036;-60
2022/03/19 09:01:19;;;;;;;12.82;4.70;;;13.30;99.90;;;;;;5115628;28;20033;-60
2022/03/19 09:03:44;;;;;;;12.18;4.40;;;13.40;99.90;;;;;;5115819;28;20039;-60
2022/03/19 09:06:14;;;;;;;17.90;4.55;;;13.30;99.90;;;;;;5115821;28;20377;-60
2022/03/19 09:08:43;;;;;;;13.95;4.50;;;13.50;99.90;;;;;;5116015;28;20389;-60
2022/03/19 09:11:10;;;;;;;17.17;4.57;;;13.70;99.90;;;;;;5115428;28;20400;-59
2022/03/19 09:13:36;;;;;;;16.70;3.38;;;13.90;99.90;;;;;;5115640;28;20046;-59
2022/03/19 09:16:03;;;;;;;9.88;3.17;;;13.60;99.90;;;;;;5114067;28;20039;-59
2022/03/19 09:18:29;;;;;;;14.10;3.83;;;13.50;99.90;;;;;;5115345;28;20039;-59
2022/03/19 09:20:55;;;;;;;10.75;3.63;;;13.80;99.90;;;;;;5115411;28;20487;-59
2022/03/19 09:23:21;;;;;;;8.55;2.55;;;14.00;99.90;;;;;;5115291;28;20040;-59
2022/03/19 09:25:47;;;;;;;10.82;3.65;;;14.10;99.90;;;;;;5115089;28;20047;-59
2022/03/19 09:28:12;;;;;;;11.05;3.40;;;13.80;99.90;;;;;;5115436;27;20088;-59
2022/03/19 09:30:38;;;;;;;14.45;3.40;;;13.90;99.90;;;;;;5115314;27;20090;-59
2022/03/19 09:33:04;;;;;;;10.48;3.53;;;14.10;99.90;;;;;;5115347;27;20031;-59
2022/03/19 09:35:29;;;;;;;13.02;3.47;;;13.70;99.90;;;;;;5114968;28;20066;-59
2022/03/19 09:37:55;;;;;;;14.13;3.72;;;13.80;99.90;;;;;;5114936;28;20454;-58
2022/03/19 09:40:23;;;;;;;11.40;3.53;;;13.50;99.90;;;;;;5115189;28;20079;-59
2022/03/19 09:42:51;;;;;;;16.38;3.25;;;13.70;99.90;;;;;;5115252;28;20453;-59
2022/03/19 09:45:22;;;;;;;17.70;3.60;;;13.80;99.90;;;;;;5114937;28;20473;-59
2022/03/19 09:47:49;;;;;;;14.02;3.83;;;13.70;99.90;;;;;;5114973;28;20109;-59
2022/03/19 09:50:15;;;;;;;12.65;2.97;;;13.80;99.90;;;;;;5115066;28;20071;-59
2022/03/19 09:52:44;;;;;;;7.88;3.13;;;14.20;99.90;;;;;;5113423;28;20054;-59
2022/03/19 09:55:15;;;;;;;11.02;3.30;;;13.80;99.90;;;;;;5114845;28;20040;-59
2022/03/19 09:57:41;;;;;;;12.95;3.75;;;13.80;99.90;;;;;;5114755;28;20386;-59
2022/03/19 10:00:07;;;;;;;11.02;3.10;;;13.80;99.90;;;;;;5114639;28;20405;-59
2022/03/19 10:02:33;;;;;;;14.40;3.67;;;13.50;99.90;;;;;;5114545;28;20035;-58
2022/03/19 10:08:35;;;;;;;12.10;3.30;;;13.60;99.90;;;;;;5114468;28;20044;-59
2022/03/19 10:10:35;;;;;;;13.57;2.67;;;13.30;99.90;;;;;;5114242;28;20397;-58
2022/03/19 10:13:08;;;;;;;13.40;3.00;;;13.30;99.90;;;;;;5114456;28;20123;-58
2022/03/19 10:15:40;;;;;;;13.68;4.07;;;13.60;99.80;;;;;;5112887;28;20036;-58
2022/03/19 10:18:08;;;;;;;13.70;3.05;;;13.80;99.90;;;;;;5114551;28;20031;-58
2022/03/19 10:20:34;;;;;;;13.15;3.05;;;13.90;99.50;;;;;;5114225;27;20071;-58
2022/03/19 10:23:00;;;;;;;18.55;4.68;;;14.10;99.90;;;;;;5114314;28;20054;-58
2022/03/19 10:25:26;;;;;;;13.05;3.80;;;13.90;99.90;;;;;;5114517;28;20481;-58
2022/03/19 10:27:59;;;;;;;11.38;3.20;;;14.10;99.90;;;;;;5114479;28;20039;-58
2022/03/19 10:30:27;;;;;;;13.02;3.03;;;14.00;98.70;;;;;;5113982;28;20497;-58
2022/03/19 10:32:55;;;;;;;12.23;3.90;;;14.20;99.60;;;;;;5113732;28;20084;-59
2022/03/19 10:35:32;;;;;;;8.80;3.15;;;14.50;99.90;;;;;;5114192;28;20050;-58
2022/03/19 10:38:01;;;;;;;14.20;3.50;;;14.50;99.90;;;;;;5113717;28;20082;-58
2022/03/19 10:40:40;;;;;;;8.80;3.00;;;14.40;99.90;;;;;;5113661;28;20413;-58
2022/03/19 10:43:11;;;;;;;11.38;3.53;;;14.20;99.90;;;;;;5114061;28;20050;-58
2022/03/19 10:45:48;;;;;;;15.05;2.80;;;14.00;99.50;;;;;;5113884;28;20100;-58
2022/03/19 10:48:18;;;;;;;10.27;3.00;;;14.00;99.70;;;;;;5112338;28;20131;-59
2022/03/19 10:50:44;;;;;;;10.80;3.67;;;14.10;99.90;;;;;;5113540;28;20122;-58
2022/03/19 10:53:11;;;;;;;8.70;2.67;;;14.10;99.50;;;;;;5113566;28;20122;-59
2022/03/19 10:55:36;;;;;;;10.55;2.30;;;14.00;98.40;;;;;;5113383;28;20481;-58
2022/03/19 10:58:02;;;;;;;11.98;2.67;;;14.10;98.50;;;;;;5113394;28;20093;-60
2022/03/19 11:00:28;;;;;;;13.40;2.38;;;14.20;97.30;;;;;;5093005;28;20085;-60
2022/03/19 11:03:00;;;;;;;6.78;1.85;;;14.60;97.50;;;;;;5092808;28;20028;-61
2022/03/19 11:05:32;;;;;;;8.32;2.70;;;15.10;97.00;;;;;;5092611;28;20040;-61
2022/03/19 11:08:01;;;;;;;10.38;2.78;;;15.30;97.10;;;;;;5092112;28;20098;-60
2022/03/19 11:10:28;;;;;;;;;;;15.60;97.10;;;;;;5092432;28;20390;-60
2022/03/19 11:12:56;;;;;;;18.42;2.97;;;15.60;95.80;;;;;;5093125;28;20304;-60
2022/03/19 11:15:23;;;;;;;8.75;2.65;;;16.00;96.30;;;;;;5093055;28;20075;-60
2022/03/19 11:17:50;;;;;;;6.38;2.72;;;16.40;95.90;;;;;;5093034;28;20044;-60
2022/03/19 11:20:16;;;;;;;6.35;2.40;;;16.60;95.00;;;;;;5092876;28;20390;-60
2022/03/19 11:22:47;;;;;;;5.63;1.83;;;17.00;93.40;;;;;;5092682;28;20089;-60
2022/03/19 11:25:42;;;;;;;9.85;2.30;;;17.30;91.50;;;;;;5092783;28;20040;-60
2022/03/19 11:28:10;;;;;;;6.07;1.77;;;17.70;92.30;;;;;;5087123;28;20398;-60
2022/03/19 11:30:40;;;;;;;9.10;2.05;;;18.00;91.20;;;;;;5092137;28;20043;-60
2022/03/19 11:33:17;;;;;;;4.30;1.52;;;18.70;90.80;;;;;;5093460;28;20043;-60
2022/03/19 11:36:10;;;;;;;9.30;1.95;;;17.90;89.90;;;;;;5091405;28;20479;-61
2022/03/19 11:38:57;;;;;;;4.10;1.42;;;18.00;87.70;;;;;;5086696;28;20451;-61
2022/03/19 11:41:29;;;;;;;7.03;2.33;;;17.60;86.70;;;;;;5092832;28;20112;-61
2022/03/19 11:44:24;;;;;;;6.80;2.00;;;17.20;86.40;;;;;;5091913;28;20111;-60
2022/03/19 11:47:05;;;;;;;6.00;1.55;;;17.80;87.00;;;;;;5079807;28;20042;-60
2022/03/19 11:49:52;;;;;;;10.20;1.75;;;17.80;85.30;;;;;;5092729;28;20036;-60
2022/03/19 11:52:46;;;;;;;7.93;1.35;;;17.80;83.20;;;;;;5092634;28;20036;-61
2022/03/19 11:55:13;;;;;;;4.45;1.40;;;18.70;83.60;;;;;;5092702;28;20044;-60
2022/03/19 11:57:47;;;;;;;12.25;2.75;;;18.20;85.60;;;;;;5090509;28;20097;-58
2022/03/19 12:00:18;;;;;;;4.25;1.40;;;18.30;83.70;;;;;;5091184;28;20040;-59
2022/03/19 12:03:03;;;;;;;8.30;1.40;;;17.60;82.40;;;;;;5077562;28;20041;-59
2022/03/19 12:05:28;;;;;;;9.90;1.88;;;17.90;84.60;;;;;;5078854;28;20040;-59
2022/03/19 12:07:55;;;;;;;5.63;1.70;;;19.00;84.60;;;;;;5075219;28;20047;-58
2022/03/19 12:10:24;;;;;;;2.88;1.17;;;19.30;82.90;;;;;;5072137;28;20494;-59
2022/03/19 12:12:50;;;;;;;3.58;1.35;;;19.20;82.00;;;;;;5072140;28;20509;-60
2022/03/19 12:15:31;;;;;;;4.78;1.13;;;18.20;80.00;;;;;;5072125;28;20402;-59
2022/03/19 12:18:22;;;;;;;5.45;1.17;;;18.10;81.00;;;;;;5072206;28;20435;-60
2022/03/19 12:20:50;;;;;;;3.50;1.27;;;18.90;80.10;;;;;;5071966;28;20032;-59
2022/03/19 12:23:15;;;;;;;3.10;1.40;;;19.00;80.20;;;;;;5072068;28;20044;-60
2022/03/19 12:26:12;;;;;;;2.70;1.48;;;18.40;79.90;;;;;;5080204;28;20153;-60
2022/03/19 12:28:39;;;;;;;3.47;1.23;;;17.90;80.30;;;;;;5029907;28;20065;-60
2022/03/19 12:31:13;;;;;;;10.13;1.75;;;18.10;81.30;;;;;;5029941;28;20527;-59
2022/03/19 12:33:40;;;;;;;7.07;2.00;;;18.50;81.30;;;;;;5031568;28;20132;-59
2022/03/19 12:36:19;;;;;;;3.05;1.08;;;17.40;78.00;;;;;;5033804;28;20121;-60
2022/03/19 12:38:48;;;;;;;15.38;1.75;;;18.10;80.00;;;;;;5034054;28;20124;-60
2022/03/19 12:41:31;;;;;;;;;;;18.00;79.40;;;;;;5031867;28;20053;-60
2022/03/19 12:44:05;;;;;;;4.15;1.73;;;17.40;80.40;;;;;;5031843;28;20319;-60
2022/03/19 12:46:34;;;;;;;4.90;1.45;;;17.20;79.50;;;;;;5033824;28;20507;-60
2022/03/19 12:49:07;;;;;;;6.72;1.65;;;17.50;77.20;;;;;;5033558;28;20045;-60
2022/03/19 12:51:36;;;;;;;6.60;1.48;;;17.40;78.40;;;;;;5033811;28;20053;-59
2022/03/19 12:54:19;;;;;;;12.68;1.30;;;17.40;79.40;;;;;;5033568;28;20546;-59
2022/03/19 12:56:45;;;;;;;6.25;2.05;;;17.50;79.70;;;;;;5033392;28;20075;-60
2022/03/19 12:59:26;;;;;;;8.20;1.95;;;17.40;78.80;;;;;;5033404;28;20147;-60
2022/03/19 13:01:52;;;;;;;4.47;1.17;;;17.70;78.90;;;;;;5033390;28;20051;-60
2022/03/19 13:04:23;;;;;;;3.00;1.10;;;17.30;79.00;;;;;;5042447;28;20045;-60
2022/03/19 13:06:49;;;;;;;9.02;1.52;;;17.70;78.70;;;;;;5083652;28;20036;-60
2022/03/19 13:09:26;;;;;;;12.43;1.58;;;17.40;79.30;;;;;;5093523;28;20052;-59